Time;durP1;ratioP1;P1;durP2;ratioP2;P2;SDS_P1;SDS_P2;PMS_P1;PMS_P2;Temp;Humidity;BMP_temperature;BMP_pressure;BME280_temperature;BME280_humidity;BME280_pressure;Samples;Min_cycle;Max_cycle;Signal;HPM_P1;HPM_P2
2023/06/16 00:01:31;;;;;;;3.67;3.27;;;15.30;99.90;;;;;;5096034;28;20173;-77
2023/06/16 00:03:57;;;;;;;7.13;3.40;;;15.30;99.90;;;;;;5097860;28;20190;-78
2023/06/16 00:06:29;;;;;;;5.80;3.40;;;15.30;99.90;;;;;;5097435;28;20246;-78
2023/06/16 00:08:56;;;;;;;4.77;3.47;;;15.30;99.90;;;;;;5094923;28;20162;-78
2023/06/16 00:11:22;;;;;;;6.27;3.20;;;15.30;99.90;;;;;;5096742;28;20170;-79
2023/06/16 00:13:50;;;;;;;5.67;3.30;;;15.30;99.90;;;;;;5097235;28;20578;-77
2023/06/16 00:16:19;;;;;;;5.03;3.60;;;15.20;99.90;;;;;;5096568;28;20174;-79
2023/06/16 00:18:53;;;;;;;3.57;3.10;;;15.20;99.90;;;;;;5096623;28;20253;-78
2023/06/16 00:21:27;;;;;;;5.03;2.90;;;15.10;99.90;;;;;;5096825;28;20158;-77
2023/06/16 00:23:53;;;;;;;4.30;2.73;;;15.10;1.00;;;;;;5097448;28;20193;-78
2023/06/16 00:26:19;;;;;;;4.23;3.30;;;15.10;1.00;;;;;;5097068;28;20197;-78
2023/06/16 00:28:44;;;;;;;5.03;3.57;;;15.10;1.00;;;;;;5095366;28;20239;-77
2023/06/16 00:31:10;;;;;;;4.53;3.40;;;15.00;1.00;;;;;;5095551;28;20636;-78
2023/06/16 00:33:36;;;;;;;7.20;3.40;;;14.90;1.00;;;;;;5097222;28;20201;-78
2023/06/16 00:36:02;;;;;;;4.63;3.30;;;14.90;1.00;;;;;;5097722;28;20174;-78
2023/06/16 00:38:28;;;;;;;4.50;3.40;;;14.80;1.00;;;;;;5096074;28;20185;-78
2023/06/16 00:40:54;;;;;;;4.73;3.37;;;14.80;1.00;;;;;;5097846;28;20205;-78
2023/06/16 00:43:20;;;;;;;11.13;3.70;;;14.80;1.00;;;;;;5096557;28;20225;-78
2023/06/16 00:45:47;;;;;;;5.27;3.37;;;14.70;1.00;;;;;;5098351;28;20174;-78
2023/06/16 00:48:13;;;;;;;4.87;3.07;;;14.60;1.00;;;;;;5099704;28;20190;-78
2023/06/16 00:50:39;;;;;;;3.80;3.40;;;14.60;1.00;;;;;;5098677;28;20703;-78
2023/06/16 00:53:05;;;;;;;4.83;3.37;;;14.60;1.00;;;;;;5099158;28;20684;-79
2023/06/16 00:55:30;;;;;;;5.67;3.57;;;14.60;1.00;;;;;;5103538;28;20222;-78
2023/06/16 00:57:56;;;;;;;5.30;3.13;;;14.60;1.00;;;;;;5105366;28;20275;-78
2023/06/16 01:00:22;;;;;;;8.23;4.13;;;14.60;1.00;;;;;;5108962;28;20174;-77
2023/06/16 01:02:49;;;;;;;6.50;3.00;;;14.50;1.00;;;;;;5107506;28;20228;-77
2023/06/16 01:05:20;;;;;;;5.97;3.27;;;14.50;1.00;;;;;;5099224;28;20205;-78
2023/06/16 01:08:14;;;;;;;4.37;3.23;;;14.50;1.00;;;;;;5094317;28;20187;-78
2023/06/16 01:11:03;;;;;;;4.53;3.10;;;14.50;1.00;;;;;;5093404;28;20571;-79
2023/06/16 01:13:55;;;;;;;6.13;3.40;;;14.50;1.00;;;;;;5095209;28;20190;-77
2023/06/16 01:16:25;;;;;;;4.53;3.53;;;14.40;1.00;;;;;;5093815;28;20560;-77
2023/06/16 01:18:53;;;;;;;8.37;3.27;;;14.40;1.00;;;;;;5095411;28;20146;-78
2023/06/16 01:21:32;;;;;;;5.03;3.70;;;14.40;1.00;;;;;;5095344;28;20534;-78
2023/06/16 01:24:09;;;;;;;3.63;3.13;;;14.30;1.00;;;;;;5094619;28;20194;-78
2023/06/16 01:26:38;;;;;;;5.70;3.63;;;14.20;1.00;;;;;;5092993;28;20261;-78
2023/06/16 01:29:06;;;;;;;3.60;3.20;;;14.20;1.00;;;;;;5093586;28;20166;-78
2023/06/16 01:31:33;;;;;;;4.10;3.37;;;14.20;1.00;;;;;;5095469;28;20170;-78
2023/06/16 01:34:03;;;;;;;5.53;3.53;;;14.10;1.00;;;;;;5098922;28;20186;-78
2023/06/16 01:36:31;;;;;;;5.40;3.57;;;14.10;1.00;;;;;;5098395;28;20178;-77
2023/06/16 01:39:00;;;;;;;6.23;3.47;;;14.00;1.00;;;;;;5098880;28;20166;-78
2023/06/16 01:41:28;;;;;;;6.60;3.53;;;14.00;1.00;;;;;;5097853;28;20261;-77
2023/06/16 01:43:54;;;;;;;5.43;3.97;;;14.00;1.00;;;;;;5098141;28;20273;-78
2023/06/16 01:46:20;;;;;;;7.27;3.83;;;14.00;1.00;;;;;;5099320;28;20163;-77
2023/06/16 01:48:46;;;;;;;5.40;3.80;;;13.90;1.00;;;;;;5098467;28;20177;-78
2023/06/16 01:51:13;;;;;;;7.67;4.03;;;13.90;1.00;;;;;;5098299;28;20166;-78
2023/06/16 01:53:39;;;;;;;4.60;3.33;;;13.80;1.00;;;;;;5099801;28;20706;-78
2023/06/16 01:56:04;;;;;;;4.30;3.47;;;13.90;1.00;;;;;;5098555;28;20171;-78
2023/06/16 01:58:30;;;;;;;4.13;3.53;;;13.90;1.00;;;;;;5099965;28;20181;-78
2023/06/16 02:01:04;;;;;;;5.60;3.40;;;13.90;1.00;;;;;;5099235;28;20192;-78
2023/06/16 02:03:35;;;;;;;8.37;3.30;;;13.90;1.00;;;;;;5099049;28;20198;-78
2023/06/16 02:06:08;;;;;;;3.80;3.33;;;13.90;1.00;;;;;;5100502;28;20299;-78
2023/06/16 02:08:35;;;;;;;5.80;3.80;;;13.90;1.00;;;;;;5099604;28;20190;-78
2023/06/16 02:11:01;;;;;;;7.10;3.70;;;13.90;1.00;;;;;;5099359;28;20701;-78
2023/06/16 02:13:27;;;;;;;7.53;3.43;;;13.90;1.00;;;;;;5099038;28;20221;-77
2023/06/16 02:15:54;;;;;;;3.67;3.27;;;13.90;1.00;;;;;;5100194;28;20541;-78
2023/06/16 02:18:27;;;;;;;8.97;3.80;;;13.90;1.00;;;;;;5100240;28;20170;-78
2023/06/16 02:20:53;;;;;;;4.73;3.40;;;13.80;1.00;;;;;;5098879;28;20177;-77
2023/06/16 02:23:20;;;;;;;4.47;3.57;;;13.80;1.00;;;;;;5098170;28;20280;-78
2023/06/16 02:25:46;;;;;;;5.97;3.50;;;13.80;1.00;;;;;;5098870;28;20197;-78
2023/06/16 02:28:11;;;;;;;4.20;3.60;;;13.70;1.00;;;;;;5099459;28;20214;-78
2023/06/16 02:30:37;;;;;;;4.93;3.50;;;13.70;1.00;;;;;;5098791;28;20193;-77
2023/06/16 02:33:02;;;;;;;6.00;3.67;;;13.70;1.00;;;;;;5097906;28;20205;-77
2023/06/16 02:35:28;;;;;;;6.07;3.63;;;13.60;1.00;;;;;;5098117;28;20188;-78
2023/06/16 02:37:54;;;;;;;4.23;3.53;;;13.60;1.00;;;;;;5096340;28;20210;-78
2023/06/16 02:40:20;;;;;;;4.87;3.53;;;13.60;1.00;;;;;;5097459;28;20171;-78
2023/06/16 02:42:47;;;;;;;6.57;3.33;;;13.50;1.00;;;;;;5096120;28;20637;-78
2023/06/16 02:45:13;;;;;;;3.53;3.17;;;13.40;1.00;;;;;;5097097;28;20205;-78
2023/06/16 02:47:40;;;;;;;5.23;3.70;;;13.30;1.00;;;;;;5105117;28;20202;-79
2023/06/16 02:50:07;;;;;;;5.33;3.80;;;13.30;1.00;;;;;;5103908;28;20184;-78
2023/06/16 02:52:33;;;;;;;5.03;3.40;;;13.40;1.00;;;;;;5103456;28;20198;-78
2023/06/16 02:54:58;;;;;;;6.67;3.60;;;13.30;1.00;;;;;;5102718;28;20181;-78
2023/06/16 02:57:24;;;;;;;8.73;3.93;;;13.30;1.00;;;;;;5105022;28;20208;-78
2023/06/16 02:59:50;;;;;;;7.13;3.47;;;13.20;1.00;;;;;;5101236;28;20178;-78
2023/06/16 03:02:15;;;;;;;5.77;3.53;;;13.20;1.00;;;;;;5100092;28;20201;-78
2023/06/16 03:04:41;;;;;;;6.63;3.83;;;13.20;1.00;;;;;;5099712;28;20178;-78
2023/06/16 03:07:07;;;;;;;6.93;3.53;;;13.20;1.00;;;;;;5099240;28;20194;-78
2023/06/16 03:09:32;;;;;;;4.10;3.37;;;13.20;1.00;;;;;;5099248;28;20174;-78
2023/06/16 03:11:58;;;;;;;6.07;3.60;;;13.20;1.00;;;;;;5101618;28;20166;-78
2023/06/16 03:14:25;;;;;;;3.50;3.03;;;13.10;1.00;;;;;;5101010;28;20193;-78
2023/06/16 03:16:50;;;;;;;5.47;3.97;;;13.10;1.00;;;;;;5099713;28;20162;-78
2023/06/16 03:19:17;;;;;;;6.47;3.50;;;13.10;1.00;;;;;;5098668;28;20249;-78
2023/06/16 03:21:44;;;;;;;5.60;3.60;;;13.10;1.00;;;;;;5098524;28;20266;-78
2023/06/16 03:24:18;;;;;;;6.83;3.67;;;13.10;1.00;;;;;;5098673;28;20186;-77
2023/06/16 03:26:44;;;;;;;4.80;3.20;;;13.10;1.00;;;;;;5096958;28;20280;-78
2023/06/16 03:29:12;;;;;;;5.30;3.63;;;13.00;1.00;;;;;;5096522;28;20249;-78
2023/06/16 03:31:38;;;;;;;6.10;3.63;;;13.00;1.00;;;;;;5097023;28;20190;-78
2023/06/16 03:34:03;;;;;;;5.33;3.23;;;13.00;1.00;;;;;;5096997;28;20687;-78
2023/06/16 03:36:32;;;;;;;3.93;3.23;;;13.00;1.00;;;;;;5094948;28;20166;-79
2023/06/16 03:38:58;;;;;;;4.73;3.53;;;13.00;1.00;;;;;;5094280;28;20170;-78
2023/06/16 03:41:23;;;;;;;4.97;3.67;;;12.90;1.00;;;;;;5094958;28;20763;-78
2023/06/16 03:43:49;;;;;;;4.43;3.57;;;12.90;1.00;;;;;;5095706;28;20212;-77
2023/06/16 03:46:15;;;;;;;5.13;3.33;;;12.90;1.00;;;;;;5095824;28;20174;-78
2023/06/16 03:48:40;;;;;;;5.83;3.83;;;12.80;1.00;;;;;;5101563;28;20255;-78
2023/06/16 03:51:06;;;;;;;3.67;3.00;;;12.80;1.00;;;;;;5096168;28;20228;-78
2023/06/16 03:53:31;;;;;;;7.03;3.93;;;12.80;1.00;;;;;;5096908;28;20265;-78
2023/06/16 03:55:57;;;;;;;4.87;3.17;;;12.80;1.00;;;;;;5095087;28;20170;-78
2023/06/16 03:58:23;;;;;;;5.80;4.27;;;12.70;1.00;;;;;;5096957;28;20166;-78
2023/06/16 04:00:50;;;;;;;5.20;3.67;;;12.70;1.00;;;;;;5097290;28;20595;-78
2023/06/16 04:03:15;;;;;;;5.07;3.40;;;12.60;1.00;;;;;;5096708;28;20244;-78
2023/06/16 04:05:41;;;;;;;5.60;3.60;;;12.60;1.00;;;;;;5094146;28;20641;-78
2023/06/16 04:08:07;;;;;;;3.67;3.30;;;12.70;1.00;;;;;;5093146;28;20190;-78
2023/06/16 04:10:33;;;;;;;6.97;3.83;;;12.70;1.00;;;;;;5093509;28;20177;-78
2023/06/16 04:12:58;;;;;;;4.40;3.33;;;12.60;1.00;;;;;;5095003;28;20233;-78
2023/06/16 04:15:24;;;;;;;5.50;3.97;;;12.70;1.00;;;;;;5093599;28;20528;-78
2023/06/16 04:17:50;;;;;;;4.60;3.60;;;12.70;1.00;;;;;;5095286;28;20181;-78
2023/06/16 04:20:15;;;;;;;7.27;3.50;;;12.70;1.00;;;;;;5094386;28;20171;-78
2023/06/16 04:22:41;;;;;;;5.60;3.67;;;12.70;1.00;;;;;;5094736;28;20198;-79
2023/06/16 04:25:09;;;;;;;8.10;4.07;;;12.70;1.00;;;;;;5093416;28;20209;-78
2023/06/16 04:27:36;;;;;;;4.83;3.27;;;12.70;1.00;;;;;;5095086;28;20660;-78
2023/06/16 04:30:04;;;;;;;4.00;3.23;;;12.80;1.00;;;;;;5093989;28;20186;-78
2023/06/16 04:32:29;;;;;;;5.00;4.17;;;12.80;1.00;;;;;;5094273;28;20201;-78
2023/06/16 04:34:57;;;;;;;5.27;3.83;;;12.80;1.00;;;;;;5099256;28;20170;-77
2023/06/16 04:37:23;;;;;;;5.07;3.60;;;12.90;1.00;;;;;;5108153;28;20200;-78
2023/06/16 04:39:48;;;;;;;4.20;3.30;;;12.90;1.00;;;;;;5108803;28;20174;-77
2023/06/16 04:42:14;;;;;;;4.87;3.50;;;12.90;1.00;;;;;;5098443;28;20223;-78
2023/06/16 04:44:41;;;;;;;6.30;3.67;;;12.90;1.00;;;;;;5094692;28;20591;-77
2023/06/16 04:47:08;;;;;;;5.07;3.50;;;12.90;1.00;;;;;;5095159;28;20217;-78
2023/06/16 04:49:34;;;;;;;6.33;3.53;;;12.90;1.00;;;;;;5094120;28;20251;-78
2023/06/16 04:52:00;;;;;;;7.13;3.90;;;13.00;1.00;;;;;;5094864;28;20577;-78
2023/06/16 04:54:26;;;;;;;5.47;3.63;;;12.90;1.00;;;;;;5096721;28;20271;-78
2023/06/16 04:56:52;;;;;;;5.87;3.50;;;12.90;1.00;;;;;;5095472;28;20250;-78
2023/06/16 04:59:17;;;;;;;6.30;3.70;;;13.00;1.00;;;;;;5096358;28;20659;-78
2023/06/16 05:01:43;;;;;;;5.10;3.40;;;13.00;1.00;;;;;;5095269;28;20257;-78
2023/06/16 05:04:09;;;;;;;4.00;3.47;;;13.00;1.00;;;;;;5096751;28;20649;-78
2023/06/16 05:06:37;;;;;;;5.87;3.77;;;13.10;1.00;;;;;;5095282;28;20174;-77
2023/06/16 05:09:04;;;;;;;5.83;3.10;;;13.10;1.00;;;;;;5099036;28;20198;-78
2023/06/16 05:11:30;;;;;;;7.87;3.37;;;13.10;1.00;;;;;;5099041;28;20686;-78
2023/06/16 05:13:55;;;;;;;6.10;3.53;;;13.10;1.00;;;;;;5098844;28;20221;-78
2023/06/16 05:16:21;;;;;;;5.47;3.63;;;13.10;1.00;;;;;;5099652;28;20174;-78
2023/06/16 05:18:46;;;;;;;5.83;3.80;;;13.20;1.00;;;;;;5099451;28;20653;-78
2023/06/16 05:21:12;;;;;;;5.90;3.63;;;13.20;1.00;;;;;;5100250;28;20182;-78
2023/06/16 05:23:37;;;;;;;5.67;3.60;;;13.30;1.00;;;;;;5099598;28;20280;-78
2023/06/16 05:26:03;;;;;;;5.27;3.83;;;13.30;1.00;;;;;;5097568;28;20194;-79
2023/06/16 05:28:29;;;;;;;5.03;3.70;;;13.40;1.00;;;;;;5099594;28;20201;-78
2023/06/16 05:30:55;;;;;;;5.50;3.70;;;13.40;1.00;;;;;;5098314;28;20269;-78
2023/06/16 05:33:20;;;;;;;8.10;4.00;;;13.50;1.00;;;;;;5099678;28;20209;-78
2023/06/16 05:35:46;;;;;;;4.47;3.83;;;13.50;1.00;;;;;;5098220;28;20586;-78
2023/06/16 05:38:12;;;;;;;5.23;3.73;;;13.60;1.00;;;;;;5099242;28;20244;-78
2023/06/16 05:40:37;;;;;;;8.17;4.07;;;13.60;1.00;;;;;;5099345;28;20170;-78
2023/06/16 05:43:03;;;;;;;6.77;3.80;;;13.70;1.00;;;;;;5098505;28;20194;-77
2023/06/16 05:45:28;;;;;;;8.83;3.70;;;13.70;1.00;;;;;;5097486;28;20269;-76
2023/06/16 05:47:54;;;;;;;6.97;4.20;;;13.80;1.00;;;;;;5096454;28;20213;-75
2023/06/16 05:50:19;;;;;;;10.53;3.77;;;13.90;1.00;;;;;;5095888;28;20228;-74
2023/06/16 05:52:45;;;;;;;8.53;4.43;;;14.00;1.00;;;;;;5095364;28;20194;-77
2023/06/16 05:55:11;;;;;;;7.23;3.60;;;14.10;1.00;;;;;;5096602;28;20584;-76
2023/06/16 05:57:37;;;;;;;9.73;3.70;;;14.10;1.00;;;;;;5098977;28;20269;-78
2023/06/16 06:00:04;;;;;;;4.67;3.60;;;14.10;1.00;;;;;;5097116;28;20637;-78
2023/06/16 06:02:30;;;;;;;6.40;3.40;;;14.30;1.00;;;;;;5098129;28;20229;-77
2023/06/16 06:04:56;;;;;;;5.20;3.80;;;14.30;1.00;;;;;;5098027;28;20257;-78
2023/06/16 06:07:21;;;;;;;5.27;3.63;;;14.50;1.00;;;;;;5099738;28;20242;-78
2023/06/16 06:09:47;;;;;;;7.07;3.57;;;14.60;1.00;;;;;;5098986;28;20182;-77
2023/06/16 06:12:12;;;;;;;8.13;3.73;;;14.60;1.00;;;;;;5099233;28;20174;-77
2023/06/16 06:14:38;;;;;;;5.70;3.43;;;14.70;1.00;;;;;;5099078;28;20174;-78
2023/06/16 06:17:04;;;;;;;6.60;3.93;;;14.80;1.00;;;;;;5099364;28;20178;-78
2023/06/16 06:19:30;;;;;;;7.77;4.97;;;14.90;1.00;;;;;;5098479;28;20182;-77
2023/06/16 06:21:56;;;;;;;5.67;3.50;;;15.00;1.00;;;;;;5098563;28;20233;-79
2023/06/16 06:24:22;;;;;;;3.93;3.53;;;15.10;1.00;;;;;;5095361;28;20348;-76
2023/06/16 06:26:47;;;;;;;4.97;3.60;;;15.20;1.00;;;;;;5095591;28;20281;-76
2023/06/16 06:29:14;;;;;;;4.23;3.17;;;15.30;1.00;;;;;;5095855;28;20549;-76
2023/06/16 06:31:40;;;;;;;6.77;3.70;;;15.40;1.00;;;;;;5094212;28;20171;-77
2023/06/16 06:34:06;;;;;;;3.80;3.00;;;15.60;1.00;;;;;;5093904;28;20222;-77
2023/06/16 06:36:34;;;;;;;4.17;3.50;;;15.50;1.00;;;;;;5095402;28;20166;-76
2023/06/16 06:39:00;;;;;;;6.07;3.27;;;15.70;1.00;;;;;;5093865;28;20248;-77
2023/06/16 06:41:26;;;;;;;6.13;3.37;;;15.80;1.00;;;;;;5095551;28;20181;-77
2023/06/16 06:43:52;;;;;;;4.93;3.33;;;15.90;1.00;;;;;;5093821;28;20201;-77
2023/06/16 06:46:18;;;;;;;4.50;3.30;;;16.00;1.00;;;;;;5095216;28;20166;-77
2023/06/16 06:48:43;;;;;;;4.07;3.07;;;16.10;99.90;;;;;;5095008;28;20340;-77
2023/06/16 06:51:10;;;;;;;4.63;3.60;;;16.30;99.90;;;;;;5093949;28;20703;-77
2023/06/16 06:53:36;;;;;;;7.13;3.60;;;16.40;99.90;;;;;;5095038;28;20186;-77
2023/06/16 06:56:01;;;;;;;3.70;3.03;;;16.50;99.90;;;;;;5095026;28;20280;-77
2023/06/16 06:58:27;;;;;;;5.17;3.40;;;16.60;99.90;;;;;;5093658;28;20178;-77
2023/06/16 07:00:52;;;;;;;4.37;3.23;;;16.80;99.90;;;;;;5093591;28;20174;-77
2023/06/16 07:03:18;;;;;;;4.77;3.03;;;16.80;1.00;;;;;;5094921;28;20198;-77
2023/06/16 07:05:44;;;;;;;9.50;3.50;;;16.90;1.00;;;;;;5093333;28;20538;-77
2023/06/16 07:08:09;;;;;;;3.47;2.70;;;17.00;99.90;;;;;;5094863;28;20194;-76
2023/06/16 07:10:36;;;;;;;3.20;2.80;;;17.10;99.90;;;;;;5094930;28;20167;-77
2023/06/16 07:13:02;;;;;;;3.03;2.50;;;17.20;99.90;;;;;;5093291;28;20233;-77
2023/06/16 07:15:27;;;;;;;3.07;2.40;;;17.40;1.00;;;;;;5094781;28;20166;-77
2023/06/16 07:17:53;;;;;;;7.00;3.00;;;17.50;1.00;;;;;;5095002;28;20232;-77
2023/06/16 07:20:19;;;;;;;4.87;3.20;;;17.60;65.60;;;;;;5095002;28;20174;-76
2023/06/16 07:22:45;;;;;;;3.80;2.43;;;17.70;30.20;;;;;;5094430;28;20190;-77
2023/06/16 07:25:11;;;;;;;3.27;2.50;;;17.80;1.00;;;;;;5094611;28;20186;-77
2023/06/16 07:27:37;;;;;;;3.20;2.73;;;17.80;1.00;;;;;;5094769;28;20246;-77
2023/06/16 07:30:07;;;;;;;4.47;2.80;;;17.80;1.00;;;;;;5092526;28;20647;-77
2023/06/16 07:32:33;;;;;;;4.10;2.70;;;17.90;1.00;;;;;;5094464;28;20193;-78
2023/06/16 07:34:58;;;;;;;2.70;2.40;;;18.00;1.00;;;;;;5094406;28;20174;-77
2023/06/16 07:37:24;;;;;;;6.20;2.80;;;18.10;1.00;;;;;;5094407;28;20541;-77
2023/06/16 07:39:50;;;;;;;3.80;2.50;;;18.20;1.00;;;;;;5094355;28;20197;-77
2023/06/16 07:42:16;;;;;;;2.93;2.53;;;18.30;1.00;;;;;;5092414;28;20243;-76
2023/06/16 07:44:42;;;;;;;4.43;2.37;;;18.40;1.00;;;;;;5092386;28;20196;-77
2023/06/16 07:47:07;;;;;;;2.73;2.23;;;18.60;1.00;;;;;;5092374;28;20233;-77
2023/06/16 07:49:33;;;;;;;5.07;2.63;;;18.80;1.00;;;;;;5093388;28;20162;-77
2023/06/16 07:51:58;;;;;;;5.60;2.50;;;19.00;1.00;;;;;;5092117;28;20198;-77
2023/06/16 07:54:24;;;;;;;3.60;2.40;;;19.20;25.40;;;;;;5094109;28;20193;-77
2023/06/16 07:56:50;;;;;;;2.97;2.40;;;19.20;99.90;;;;;;5092719;28;20174;-77
2023/06/16 07:59:16;;;;;;;5.03;2.83;;;19.40;1.00;;;;;;5093199;28;20181;-78
2023/06/16 08:01:42;;;;;;;4.20;2.83;;;19.60;1.00;;;;;;5092908;28;20174;-77
2023/06/16 08:04:08;;;;;;;7.93;2.97;;;19.80;99.90;;;;;;5094407;28;20190;-77
2023/06/16 08:06:34;;;;;;;6.17;3.10;;;19.80;99.90;;;;;;5093944;28;20174;-78
2023/06/16 08:08:59;;;;;;;3.70;2.47;;;19.80;99.90;;;;;;5094784;28;20167;-78
2023/06/16 08:11:25;;;;;;;6.30;2.43;;;19.90;99.90;;;;;;5094332;28;20162;-78
2023/06/16 08:13:52;;;;;;;4.60;2.80;;;20.00;74.50;;;;;;5094339;28;20194;-77
2023/06/16 08:16:17;;;;;;;5.97;2.40;;;20.20;99.90;;;;;;5099277;28;20175;-77
2023/06/16 08:18:43;;;;;;;6.33;2.77;;;20.20;99.90;;;;;;5101402;28;20543;-77
2023/06/16 08:21:08;;;;;;;6.40;2.60;;;20.20;99.90;;;;;;5099074;28;20196;-77
2023/06/16 08:23:34;;;;;;;4.57;2.70;;;20.20;1.00;;;;;;5093162;28;20201;-77
2023/06/16 08:26:00;;;;;;;7.00;2.47;;;20.20;1.00;;;;;;5092134;28;20194;-77
2023/06/16 08:28:25;;;;;;;6.23;2.83;;;20.30;1.00;;;;;;5093272;28;20284;-77
2023/06/16 08:30:51;;;;;;;3.60;2.83;;;20.50;1.00;;;;;;5093255;28;20261;-77
2023/06/16 08:33:17;;;;;;;7.03;3.03;;;20.70;1.00;;;;;;5093536;28;20209;-77
2023/06/16 08:35:42;;;;;;;5.97;2.60;;;20.70;99.90;;;;;;5091958;28;20178;-77
2023/06/16 08:38:08;;;;;;;5.07;2.77;;;20.70;99.90;;;;;;5091837;28;20319;-76
2023/06/16 08:40:34;;;;;;;5.70;3.07;;;20.90;2.70;;;;;;5093472;28;20622;-77
2023/06/16 08:43:04;;;;;;;4.30;2.60;;;20.90;99.90;;;;;;5092114;28;20568;-78
2023/06/16 08:45:30;;;;;;;6.50;2.90;;;21.00;99.90;;;;;;5095437;28;20185;-79
2023/06/16 08:47:56;;;;;;;4.70;2.90;;;21.10;99.90;;;;;;5094947;28;20658;-79
2023/06/16 08:50:23;;;;;;;4.20;2.60;;;21.30;1.00;;;;;;5095061;28;20178;-78
2023/06/16 08:52:52;;;;;;;6.87;2.60;;;21.40;1.00;;;;;;5095452;28;20616;-79
2023/06/16 08:55:19;;;;;;;5.57;2.53;;;21.50;8.60;;;;;;5095680;28;20173;-78
2023/06/16 08:57:47;;;;;;;5.27;2.90;;;21.60;99.90;;;;;;5095856;28;20178;-79
2023/06/16 09:00:13;;;;;;;5.33;2.87;;;21.70;1.00;;;;;;5095799;28;20592;-78
2023/06/16 09:02:41;;;;;;;5.07;2.50;;;21.80;1.00;;;;;;5093745;28;20247;-79
2023/06/16 09:05:07;;;;;;;4.17;2.77;;;21.70;99.90;;;;;;5095074;28;20189;-78
2023/06/16 09:07:33;;;;;;;7.77;3.10;;;21.70;99.90;;;;;;5092304;28;20244;-78
2023/06/16 09:09:59;;;;;;;3.53;2.80;;;21.90;1.00;;;;;;5093257;28;20178;-78
2023/06/16 09:12:24;;;;;;;3.23;2.53;;;22.00;99.90;;;;;;5094290;28;20174;-77
2023/06/16 09:14:50;;;;;;;4.20;2.70;;;22.00;1.00;;;;;;5092876;28;20170;-75
2023/06/16 09:17:22;;;;;;;5.03;2.47;;;22.20;1.00;;;;;;5091027;28;20667;-77
2023/06/16 09:19:48;;;;;;;5.03;2.60;;;22.20;1.00;;;;;;5092596;28;20517;-77
2023/06/16 09:22:21;;;;;;;4.20;3.30;;;22.30;99.90;;;;;;5092541;28;20174;-77
2023/06/16 09:24:58;;;;;;;7.80;2.77;;;22.40;1.00;;;;;;5091305;28;20198;-77
2023/06/16 09:27:45;;;;;;;10.87;2.90;;;22.50;99.90;;;;;;5091243;28;20687;-77
2023/06/16 09:30:18;;;;;;;5.53;2.80;;;22.70;99.90;;;;;;5092584;28;20163;-77
2023/06/16 09:32:45;;;;;;;5.60;2.80;;;22.80;99.90;;;;;;5091285;28;20194;-77
2023/06/16 09:35:17;;;;;;;5.30;2.87;;;22.70;1.00;;;;;;5091864;28;20269;-77
2023/06/16 09:37:44;;;;;;;4.93;2.40;;;22.90;99.90;;;;;;5091350;28;20202;-77
2023/06/16 09:40:10;;;;;;;3.00;2.50;;;23.00;99.90;;;;;;5093200;28;20174;-81
2023/06/16 09:42:40;;;;;;;3.63;2.63;;;23.10;99.90;;;;;;5094073;28;20699;-78
2023/06/16 09:45:12;;;;;;;3.53;3.00;;;23.30;90.30;;;;;;5092536;28;20213;-78
2023/06/16 09:47:38;;;;;;;3.23;2.40;;;23.40;99.90;;;;;;5092097;28;20202;-78
2023/06/16 09:50:06;;;;;;;3.80;2.43;;;23.40;98.70;;;;;;5093601;28;20594;-79
2023/06/16 09:52:36;;;;;;;5.87;2.60;;;23.40;97.80;;;;;;5092555;28;20254;-79
2023/06/16 09:55:02;;;;;;;4.13;2.83;;;23.50;1.00;;;;;;5096823;28;20167;-78
2023/06/16 09:57:28;;;;;;;4.80;2.67;;;23.50;99.90;;;;;;5097781;28;20292;-77
2023/06/16 09:59:54;;;;;;;5.80;2.50;;;23.50;99.90;;;;;;5096591;28;20182;-78
2023/06/16 10:02:23;;;;;;;3.27;2.30;;;23.60;99.90;;;;;;5097472;28;20230;-79
2023/06/16 10:04:51;;;;;;;3.20;2.83;;;23.80;99.90;;;;;;5098883;28;20182;-78
2023/06/16 10:07:17;;;;;;;3.67;2.70;;;23.90;99.90;;;;;;5098539;28;20194;-77
2023/06/16 10:09:47;;;;;;;3.23;2.70;;;23.90;34.00;;;;;;5095485;28;20259;-78
2023/06/16 10:12:14;;;;;;;5.03;3.03;;;24.00;1.00;;;;;;5096740;28;20540;-78
2023/06/16 10:14:41;;;;;;;5.40;2.90;;;24.00;99.90;;;;;;5096675;28;20171;-79
2023/06/16 10:17:10;;;;;;;3.83;2.80;;;24.20;1.00;;;;;;5095370;28;20185;-78
2023/06/16 10:19:40;;;;;;;6.90;2.77;;;24.20;1.00;;;;;;5096826;28;20591;-77
2023/06/16 10:22:07;;;;;;;4.50;3.00;;;24.20;1.00;;;;;;5097519;28;20166;-79
2023/06/16 10:24:33;;;;;;;3.87;2.67;;;24.30;1.00;;;;;;5096268;28;20218;-79
2023/06/16 10:27:00;;;;;;;8.00;3.03;;;24.30;99.90;;;;;;5097714;28;20206;-79
2023/06/16 10:29:28;;;;;;;6.43;3.07;;;24.20;99.90;;;;;;5096097;28;20174;-79
2023/06/16 10:32:07;;;;;;;7.67;3.10;;;24.10;99.90;;;;;;5098044;28;20170;-79
2023/06/16 10:34:51;;;;;;;4.40;3.10;;;24.10;1.00;;;;;;5096933;28;20197;-79
2023/06/16 10:37:21;;;;;;;5.07;2.77;;;24.20;43.10;;;;;;5096804;28;20188;-79
2023/06/16 10:39:46;;;;;;;5.23;3.07;;;24.20;99.90;;;;;;5097803;28;20178;-78
2023/06/16 10:42:13;;;;;;;4.80;2.80;;;24.40;99.90;;;;;;5097106;28;20330;-79
2023/06/16 10:44:39;;;;;;;9.03;3.13;;;24.60;99.90;;;;;;5097762;28;20209;-79
2023/06/16 10:47:08;;;;;;;4.30;3.07;;;24.40;99.90;;;;;;5097864;28;20205;-79
2023/06/16 10:49:55;;;;;;;5.23;2.80;;;24.50;99.90;;;;;;5097621;28;20171;-79
2023/06/16 10:52:50;;;;;;;3.97;3.10;;;24.60;42.10;;;;;;5097891;28;20155;-78
2023/06/16 10:55:32;;;;;;;7.47;3.20;;;24.70;99.90;;;;;;5097474;28;20166;-79
2023/06/16 10:58:15;;;;;;;8.83;3.67;;;24.90;1.00;;;;;;5097188;28;20174;-78
2023/06/16 11:00:55;;;;;;;6.27;3.37;;;24.90;1.00;;;;;;5098777;28;20169;-79
2023/06/16 11:03:21;;;;;;;4.83;3.17;;;24.80;99.90;;;;;;5096631;28;20198;-79
2023/06/16 11:05:48;;;;;;;10.33;3.03;;;24.80;1.00;;;;;;5097937;28;20170;-78
2023/06/16 11:08:16;;;;;;;6.17;3.50;;;24.90;99.90;;;;;;5096707;28;20241;-79
2023/06/16 11:10:53;;;;;;;6.30;2.87;;;25.00;27.00;;;;;;5097835;28;20190;-78
2023/06/16 11:13:32;;;;;;;7.57;3.30;;;25.00;1.00;;;;;;5098688;28;20194;-78
2023/06/16 11:15:59;;;;;;;5.90;3.33;;;25.10;1.00;;;;;;5098163;28;20582;-79
2023/06/16 11:18:26;;;;;;;6.70;3.00;;;25.20;53.40;;;;;;5097786;28;20178;-78
2023/06/16 11:20:59;;;;;;;6.20;3.50;;;25.20;1.00;;;;;;5098129;28;20701;-78
2023/06/16 11:23:26;;;;;;;8.20;3.50;;;25.30;1.00;;;;;;5099752;28;20273;-79
2023/06/16 11:25:51;;;;;;;5.65;3.00;;;25.30;1.00;;;;;;5099540;28;20736;-79
2023/06/16 11:28:21;;;;;;;5.93;3.42;;;25.40;1.00;;;;;;5097868;28;20304;-78
2023/06/16 11:30:47;;;;;;;7.53;3.20;;;25.30;1.00;;;;;;5099919;28;20196;-79
2023/06/16 11:33:16;;;;;;;5.30;3.30;;;25.50;1.00;;;;;;5100760;28;20190;-79
2023/06/16 11:35:43;;;;;;;5.68;3.50;;;25.40;99.90;;;;;;5100910;28;20181;-79
2023/06/16 11:38:08;;;;;;;9.88;3.72;;;25.50;99.90;;;;;;5099894;28;20225;-79
2023/06/16 11:40:35;;;;;;;5.50;3.30;;;25.50;99.90;;;;;;5100577;28;20177;-79
2023/06/16 11:43:05;;;;;;;11.55;3.53;;;25.60;1.00;;;;;;5103619;28;20272;-79
2023/06/16 11:45:40;;;;;;;7.53;4.00;;;25.50;99.90;;;;;;5102156;28;20253;-79
2023/06/16 11:48:08;;;;;;;5.45;3.65;;;25.70;1.00;;;;;;5102135;28;20213;-79
2023/06/16 11:50:35;;;;;;;4.07;3.42;;;25.70;99.90;;;;;;5103269;28;20539;-79
2023/06/16 11:53:00;;;;;;;7.50;3.45;;;25.70;99.90;;;;;;5110368;28;20194;-78
2023/06/16 11:55:26;;;;;;;4.40;3.10;;;25.60;1.00;;;;;;5116118;28;20235;-79
2023/06/16 11:57:52;;;;;;;9.27;3.55;;;25.80;1.00;;;;;;5114888;28;20182;-78
2023/06/16 12:00:20;;;;;;;7.30;3.75;;;25.90;99.90;;;;;;5101477;28;20228;-79
2023/06/16 12:02:47;;;;;;;4.25;3.30;;;26.10;99.90;;;;;;5099214;28;20542;-79
2023/06/16 12:05:31;;;;;;;7.43;3.63;;;25.90;99.90;;;;;;5101617;28;20186;-79
2023/06/16 12:07:56;;;;;;;6.05;3.13;;;25.80;99.90;;;;;;5098758;28;20194;-78
2023/06/16 12:10:23;;;;;;;7.22;3.85;;;25.90;99.90;;;;;;5098872;28;20174;-78
2023/06/16 12:12:49;;;;;;;3.95;3.35;;;26.00;99.90;;;;;;5099522;28;20194;-79
2023/06/16 12:15:20;;;;;;;4.97;3.72;;;26.10;32.90;;;;;;5098683;28;20269;-79
2023/06/16 12:17:47;;;;;;;5.38;2.88;;;26.10;1.00;;;;;;5098761;28;20177;-79
2023/06/16 12:20:13;;;;;;;13.63;3.88;;;26.20;1.00;;;;;;5102119;28;20243;-79
2023/06/16 12:22:39;;;;;;;5.88;3.38;;;26.20;99.90;;;;;;5098823;28;20280;-79
2023/06/16 12:25:10;;;;;;;7.90;3.25;;;26.30;1.00;;;;;;5100119;28;20200;-79
2023/06/16 12:27:36;;;;;;;9.40;3.65;;;26.40;99.90;;;;;;5099009;28;20703;-79
2023/06/16 12:30:03;;;;;;;4.82;3.20;;;26.30;1.00;;;;;;5099641;28;20202;-80
2023/06/16 12:32:33;;;;;;;3.97;3.42;;;26.30;99.90;;;;;;5099233;28;20616;-79
2023/06/16 12:34:59;;;;;;;7.40;3.25;;;26.30;1.00;;;;;;5101950;28;20174;-78
2023/06/16 12:37:26;;;;;;;7.93;3.20;;;26.30;99.90;;;;;;5100049;28;20166;-78
2023/06/16 12:39:59;;;;;;;6.82;3.72;;;26.40;99.90;;;;;;5095610;28;20185;-78
2023/06/16 12:42:29;;;;;;;6.05;3.08;;;26.40;1.00;;;;;;5095651;28;20312;-78
2023/06/16 12:44:59;;;;;;;6.60;3.40;;;26.50;1.00;;;;;;5098031;28;20174;-78
2023/06/16 12:47:25;;;;;;;9.00;3.80;;;26.40;99.90;;;;;;5094460;28;20320;-80
2023/06/16 12:49:53;;;;;;;5.05;3.55;;;26.40;1.00;;;;;;5097088;28;20189;-80
2023/06/16 12:52:19;;;;;;;11.80;3.38;;;26.50;1.00;;;;;;5096490;28;20750;-78
2023/06/16 12:54:46;;;;;;;7.70;3.90;;;26.40;99.90;;;;;;5097162;28;20173;-79